Time;durP1;ratioP1;P1;durP2;ratioP2;P2;SDS_P1;SDS_P2;PMS_P1;PMS_P2;Temp;Humidity;BMP_temperature;BMP_pressure;BME280_temperature;BME280_humidity;BME280_pressure;Samples;Min_cycle;Max_cycle;Signal;HPM_P1;HPM_P2
2023/10/02 00:01:48;;;;;;;0.10;0.10;;;14.20;99.90;;;;;;4962492;28;20227;-82
2023/10/02 00:04:17;;;;;;;0.10;0.10;;;14.10;99.90;;;;;;4963382;28;20355;-81
2023/10/02 00:06:43;;;;;;;0.10;0.10;;;14.10;99.90;;;;;;4961684;28;20188;-81
2023/10/02 00:09:09;;;;;;;0.10;0.10;;;14.10;99.90;;;;;;4961559;28;20192;-81
2023/10/02 00:11:45;;;;;;;0.10;0.10;;;14.00;99.90;;;;;;4960357;28;20235;-81
2023/10/02 00:14:22;;;;;;;0.10;0.10;;;14.00;99.90;;;;;;4962548;28;20188;-81
2023/10/02 00:17:05;;;;;;;0.10;0.10;;;14.00;99.90;;;;;;4962213;28;20187;-81
2023/10/02 00:19:45;;;;;;;0.10;0.10;;;14.00;99.90;;;;;;4961009;28;20257;-81
2023/10/02 00:25:07;;;;;;;0.10;0.10;;;14.20;99.90;;;;;;4960338;28;20221;-81
2023/10/02 00:27:34;;;;;;;0.10;0.10;;;14.30;99.90;;;;;;4963279;28;20192;-82
2023/10/02 00:30:00;;;;;;;0.10;0.10;;;14.40;99.90;;;;;;4961731;28;20210;-82
2023/10/02 00:32:29;;;;;;;0.10;0.10;;;14.50;99.90;;;;;;4963095;28;20242;-81
2023/10/02 00:34:55;;;;;;;0.10;0.10;;;14.50;99.90;;;;;;4960448;28;20198;-82
2023/10/02 00:37:21;;;;;;;0.10;0.10;;;14.50;99.90;;;;;;4959330;28;20216;-82
2023/10/02 00:39:52;;;;;;;0.07;0.07;;;14.50;99.90;;;;;;4975420;28;20225;-82
2023/10/02 00:42:24;;;;;;;0.10;0.10;;;14.30;99.90;;;;;;4960965;28;20230;-81
2023/10/02 00:45:02;;;;;;;0.10;0.10;;;14.10;99.90;;;;;;4961107;28;20228;-82
2023/10/02 00:47:38;;;;;;;0.10;0.10;;;14.00;99.90;;;;;;4961903;28;20168;-81
2023/10/02 00:50:10;;;;;;;0.10;0.10;;;13.80;99.90;;;;;;4962385;28;20711;-81
2023/10/02 00:52:58;;;;;;;0.10;0.10;;;13.80;99.90;;;;;;4961067;28;20210;-82
2023/10/02 00:55:32;;;;;;;0.10;0.10;;;13.70;99.90;;;;;;4960613;28;20190;-81
2023/10/02 00:57:59;;;;;;;0.10;0.10;;;13.60;99.90;;;;;;4976155;28;20290;-81
2023/10/02 01:00:35;;;;;;;0.10;0.10;;;13.60;99.90;;;;;;4960139;28;20657;-82
2023/10/02 01:03:02;;;;;;;0.10;0.10;;;13.70;99.90;;;;;;4956176;28;20284;-82
2023/10/02 01:05:41;;;;;;;0.10;0.10;;;13.80;99.90;;;;;;4959412;28;20196;-81
2023/10/02 01:08:25;;;;;;;0.10;0.10;;;13.80;99.90;;;;;;4960347;28;20185;-82
2023/10/02 01:10:59;;;;;;;0.10;0.10;;;13.90;99.90;;;;;;4957865;28;20212;-81
2023/10/02 01:13:35;;;;;;;0.10;0.10;;;13.90;99.90;;;;;;4975650;28;20275;-81
2023/10/02 01:16:07;;;;;;;0.10;0.10;;;13.80;99.90;;;;;;4959887;28;20194;-81
2023/10/02 01:18:37;;;;;;;0.07;0.07;;;13.90;99.90;;;;;;4976402;28;20194;-82
2023/10/02 01:21:11;;;;;;;0.10;0.10;;;14.00;99.90;;;;;;4961169;28;20226;-82
2023/10/02 01:24:16;;;;;;;0.10;0.10;;;13.90;99.90;;;;;;4973338;28;20277;-81
2023/10/02 01:26:43;;;;;;;0.10;0.10;;;13.90;99.90;;;;;;4960559;28;20235;-81
2023/10/02 01:29:14;;;;;;;0.10;0.10;;;14.00;99.90;;;;;;4958054;28;20242;-81
2023/10/02 01:31:44;;;;;;;0.10;0.10;;;14.00;99.90;;;;;;4959902;28;20213;-82
2023/10/02 01:34:13;;;;;;;0.00;0.00;;;14.00;99.90;;;;;;4958915;28;20188;-82
2023/10/02 01:36:41;;;;;;;0.10;0.10;;;13.90;99.90;;;;;;4956898;28;20683;-82
2023/10/02 01:39:16;;;;;;;0.10;0.10;;;13.90;99.90;;;;;;4960722;28;20193;-81
2023/10/02 01:41:52;;;;;;;0.10;0.10;;;14.00;99.90;;;;;;4958704;28;20214;-81
2023/10/02 01:44:20;;;;;;;0.10;0.10;;;14.10;99.90;;;;;;4961059;28;20184;-82
2023/10/02 01:46:52;;;;;;;0.10;0.10;;;14.10;99.90;;;;;;4960796;28;20180;-81
2023/10/02 01:49:24;;;;;;;0.10;0.10;;;14.20;99.90;;;;;;4959737;28;20182;-81
2023/10/02 01:51:55;;;;;;;0.10;0.10;;;14.20;99.90;;;;;;4959758;28;20244;-81
2023/10/02 01:54:29;;;;;;;0.10;0.10;;;14.20;99.90;;;;;;4959462;28;20262;-81
2023/10/02 01:56:55;;;;;;;0.10;0.10;;;14.20;99.90;;;;;;4961202;28;20222;-81
2023/10/02 01:59:21;;;;;;;0.10;0.10;;;14.20;99.90;;;;;;4960254;28;20268;-82
2023/10/02 02:01:57;;;;;;;0.00;0.00;;;14.20;99.90;;;;;;4960237;28;20246;-81
2023/10/02 02:04:28;;;;;;;0.10;0.10;;;14.30;99.90;;;;;;4959202;28;20727;-81
2023/10/02 02:06:56;;;;;;;0.10;0.10;;;14.40;99.90;;;;;;4957572;28;20198;-81
2023/10/02 02:09:30;;;;;;;0.10;0.10;;;14.30;99.90;;;;;;4958498;28;20192;-81
2023/10/02 02:12:12;;;;;;;0.10;0.10;;;14.30;99.90;;;;;;4959623;28;20215;-82
2023/10/02 02:14:52;;;;;;;0.10;0.10;;;14.20;99.90;;;;;;4960231;28;20199;-81
2023/10/02 02:17:21;;;;;;;0.10;0.10;;;14.20;99.90;;;;;;4973673;28;20230;-81
2023/10/02 02:19:50;;;;;;;0.10;0.10;;;14.20;99.90;;;;;;4958811;28;20279;-82
2023/10/02 02:22:16;;;;;;;0.10;0.10;;;14.30;99.90;;;;;;4959398;28;20232;-82
2023/10/02 02:24:42;;;;;;;0.10;0.10;;;14.30;99.90;;;;;;4956570;28;20196;-82
2023/10/02 02:27:08;;;;;;;0.10;0.10;;;14.30;99.90;;;;;;4958342;28;20232;-81
2023/10/02 02:29:34;;;;;;;0.10;0.10;;;14.30;99.90;;;;;;4958209;28;20187;-81
2023/10/02 02:32:00;;;;;;;0.10;0.10;;;14.20;99.90;;;;;;4958855;28;20208;-81
2023/10/02 02:34:25;;;;;;;0.10;0.10;;;14.10;99.90;;;;;;4959347;28;20194;-81
2023/10/02 02:36:51;;;;;;;0.10;0.10;;;13.90;99.90;;;;;;4958440;28;20198;-81
2023/10/02 02:39:22;;;;;;;0.10;0.10;;;13.90;99.90;;;;;;4957412;28;20188;-82
2023/10/02 02:44:43;;;;;;;0.10;0.10;;;14.00;99.90;;;;;;4961031;28;20190;-82
2023/10/02 02:47:10;;;;;;;0.10;0.10;;;14.10;99.90;;;;;;4955991;28;21003;-81
2023/10/02 02:49:50;;;;;;;0.10;0.10;;;14.20;99.90;;;;;;4960094;28;20189;-81
2023/10/02 02:52:32;;;;;;;0.10;0.10;;;14.10;99.90;;;;;;4958121;28;20208;-81
2023/10/02 02:55:04;;;;;;;0.10;0.10;;;14.20;99.90;;;;;;4958127;28;20686;-81
2023/10/02 02:57:31;;;;;;;0.10;0.10;;;14.20;99.90;;;;;;4961337;28;20672;-81
2023/10/02 03:02:46;;;;;;;0.10;0.10;;;14.30;99.90;;;;;;4961880;28;20354;-81
2023/10/02 03:05:20;;;;;;;0.10;0.10;;;14.30;99.90;;;;;;4962217;28;20195;-82
2023/10/02 03:07:48;;;;;;;0.10;0.10;;;14.30;99.90;;;;;;4963486;28;20179;-81
2023/10/02 03:10:19;;;;;;;0.10;0.10;;;14.10;99.90;;;;;;4961598;28;20178;-81
2023/10/02 03:12:45;;;;;;;0.10;0.10;;;14.20;99.90;;;;;;4964632;28;20229;-82
2023/10/02 03:15:17;;;;;;;0.10;0.10;;;14.20;99.90;;;;;;4963163;28;20188;-82
2023/10/02 03:17:48;;;;;;;0.10;0.10;;;14.20;99.90;;;;;;4960431;28;20222;-82
2023/10/02 03:20:24;;;;;;;0.10;0.10;;;14.20;99.90;;;;;;4961356;28;20254;-82
2023/10/02 03:22:56;;;;;;;0.10;0.10;;;14.10;99.90;;;;;;4964311;28;20794;-82
2023/10/02 03:25:28;;;;;;;0.10;0.10;;;14.10;99.90;;;;;;4962722;28;20194;-82
2023/10/02 03:27:57;;;;;;;0.10;0.10;;;14.00;99.90;;;;;;4960151;28;20227;-81
2023/10/02 03:33:21;;;;;;;0.10;0.10;;;14.00;99.90;;;;;;4957553;28;20611;-82
2023/10/02 03:35:58;;;;;;;0.10;0.10;;;14.00;99.90;;;;;;4955811;28;20188;-82
2023/10/02 03:38:29;;;;;;;0.10;0.10;;;14.00;99.90;;;;;;4975963;28;21104;-82
2023/10/02 03:40:58;;;;;;;0.10;0.10;;;14.00;99.90;;;;;;4961984;28;20208;-82
2023/10/02 03:43:43;;;;;;;0.10;0.10;;;14.00;99.90;;;;;;4990512;28;20210;-83
2023/10/02 03:46:35;;;;;;;0.10;0.10;;;14.00;99.90;;;;;;4960428;28;20180;-82
2023/10/02 03:49:04;;;;;;;0.10;0.10;;;14.00;99.90;;;;;;4959277;28;20195;-82
2023/10/02 03:51:36;;;;;;;0.10;0.10;;;13.90;99.90;;;;;;4959212;28;20203;-82
2023/10/02 03:54:18;;;;;;;0.10;0.10;;;13.90;99.90;;;;;;4958561;28;20195;-82
2023/10/02 03:56:55;;;;;;;0.10;0.10;;;13.80;99.90;;;;;;4961004;28;20229;-81
2023/10/02 03:59:27;;;;;;;0.10;0.10;;;13.80;99.90;;;;;;4959185;28;20188;-82
2023/10/02 04:02:24;;;;;;;0.10;0.10;;;13.80;99.90;;;;;;4962018;28;20220;-82
2023/10/02 04:04:44;;;;;;;0.10;0.10;;;13.80;99.90;;;;;;4961184;28;20341;-82
2023/10/02 04:07:11;;;;;;;0.10;0.10;;;13.90;99.90;;;;;;4960029;28;20183;-82
2023/10/02 04:09:37;;;;;;;0.10;0.10;;;13.90;99.90;;;;;;4957515;28;20192;-82
2023/10/02 04:12:06;;;;;;;0.10;0.10;;;13.90;99.90;;;;;;4961623;28;20210;-81
2023/10/02 04:14:33;;;;;;;0.10;0.10;;;13.90;99.90;;;;;;4975556;28;20227;-81
2023/10/02 04:19:56;;;;;;;0.10;0.10;;;13.90;99.90;;;;;;4958894;28;20187;-81
2023/10/02 04:22:22;;;;;;;0.10;0.10;;;13.90;99.90;;;;;;4960900;28;20300;-81
2023/10/02 04:24:58;;;;;;;0.10;0.10;;;13.70;99.90;;;;;;4960886;28;20803;-81
2023/10/02 04:27:27;;;;;;;0.00;0.00;;;13.40;99.90;;;;;;4960391;28;20209;-81
2023/10/02 04:32:34;;;;;;;0.10;0.10;;;13.30;99.90;;;;;;4961328;28;20191;-81
2023/10/02 04:35:02;;;;;;;0.10;0.10;;;13.30;99.90;;;;;;4958910;28;20241;-81
2023/10/02 04:37:31;;;;;;;0.10;0.10;;;13.40;99.90;;;;;;4955577;28;20251;-81
2023/10/02 04:42:29;;;;;;;0.10;0.10;;;13.50;99.90;;;;;;4959268;28;20206;-81
2023/10/02 04:44:58;;;;;;;0.10;0.10;;;13.50;99.90;;;;;;4960042;28;20199;-81
2023/10/02 04:47:26;;;;;;;0.10;0.10;;;13.50;99.90;;;;;;4959917;28;20196;-81
2023/10/02 04:55:24;;;;;;;0.10;0.10;;;13.60;99.90;;;;;;4961299;28;20685;-81
2023/10/02 04:57:54;;;;;;;0.10;0.10;;;13.60;99.90;;;;;;4961840;28;20184;-81
2023/10/02 05:03:24;;;;;;;0.10;0.10;;;13.70;99.90;;;;;;4952054;28;20217;-82
2023/10/02 05:05:53;;;;;;;0.10;0.10;;;13.70;99.90;;;;;;4957715;28;20193;-82
2023/10/02 05:08:21;;;;;;;0.10;0.10;;;13.60;99.90;;;;;;4957231;28;20674;-81
2023/10/02 05:10:49;;;;;;;0.10;0.10;;;13.60;99.90;;;;;;4958080;28;20306;-81
2023/10/02 05:13:44;;;;;;;0.10;0.10;;;13.60;99.90;;;;;;4958005;28;20289;-81
2023/10/02 05:16:12;;;;;;;0.10;0.10;;;13.60;99.90;;;;;;4960885;28;20611;-81
2023/10/02 05:18:44;;;;;;;0.10;0.10;;;13.60;99.90;;;;;;4958089;28;20566;-80
2023/10/02 05:21:17;;;;;;;0.00;0.00;;;13.60;99.90;;;;;;4956126;28;20221;-81
2023/10/02 05:24:01;;;;;;;0.10;0.10;;;13.60;99.90;;;;;;4954979;28;20201;-80
2023/10/02 05:26:36;;;;;;;0.10;0.10;;;13.60;99.90;;;;;;4961842;28;20190;-86
2023/10/02 05:29:17;;;;;;;0.10;0.10;;;13.60;99.90;;;;;;4961185;28;20175;-81
2023/10/02 05:31:47;;;;;;;0.10;0.10;;;13.60;99.90;;;;;;4959275;28;20698;-81
2023/10/02 05:34:24;;;;;;;0.10;0.10;;;13.60;99.90;;;;;;4959753;28;20453;-81
2023/10/02 05:37:39;;;;;;;0.10;0.10;;;13.60;99.90;;;;;;4957185;28;20200;-81
2023/10/02 05:39:42;;;;;;;0.10;0.10;;;13.70;99.90;;;;;;4961498;28;20203;-81
2023/10/02 05:42:14;;;;;;;0.10;0.10;;;13.70;99.90;;;;;;4959517;28;20212;-81
2023/10/02 05:44:44;;;;;;;0.10;0.10;;;13.70;99.90;;;;;;4959817;28;20193;-81
2023/10/02 05:47:11;;;;;;;0.10;0.10;;;13.80;99.90;;;;;;4961670;28;20202;-81
2023/10/02 05:49:49;;;;;;;0.10;0.10;;;13.80;99.90;;;;;;4961052;28;20567;-81
2023/10/02 05:52:18;;;;;;;0.10;0.10;;;13.90;99.90;;;;;;4959827;28;20212;-81
2023/10/02 05:54:47;;;;;;;0.10;0.10;;;13.90;99.90;;;;;;4960296;28;20282;-81
2023/10/02 05:57:13;;;;;;;0.10;0.10;;;13.90;99.90;;;;;;4958590;28;20315;-81
2023/10/02 05:59:48;;;;;;;0.07;0.07;;;13.90;99.90;;;;;;4975770;28;20290;-81
2023/10/02 06:02:17;;;;;;;0.10;0.10;;;14.00;99.90;;;;;;4961284;28;20226;-81
2023/10/02 06:04:47;;;;;;;0.10;0.10;;;14.00;99.90;;;;;;4957875;28;20199;-82
2023/10/02 06:07:40;;;;;;;0.10;0.10;;;14.10;99.90;;;;;;4959200;28;20560;-82
2023/10/02 06:10:25;;;;;;;0.10;0.10;;;14.20;99.90;;;;;;4959929;28;20313;-82
2023/10/02 06:13:03;;;;;;;0.10;0.10;;;14.30;99.90;;;;;;4959940;28;20663;-82
2023/10/02 06:15:46;;;;;;;0.10;0.10;;;14.30;99.90;;;;;;4951986;28;20278;-82
2023/10/02 06:18:24;;;;;;;0.10;0.10;;;14.40;99.90;;;;;;4958734;28;20631;-81
2023/10/02 06:20:58;;;;;;;0.07;0.07;;;14.50;99.90;;;;;;4960122;28;20586;-81
2023/10/02 06:23:24;;;;;;;0.10;0.10;;;14.60;99.90;;;;;;4957337;28;20184;-82
2023/10/02 06:25:52;;;;;;;0.10;0.10;;;14.50;99.90;;;;;;4958903;28;20521;-81
2023/10/02 06:28:27;;;;;;;0.10;0.10;;;14.40;99.90;;;;;;4958982;28;20209;-82
2023/10/02 06:30:54;;;;;;;0.10;0.10;;;14.50;99.90;;;;;;4956656;28;20613;-82
2023/10/02 06:33:21;;;;;;;0.00;0.00;;;14.50;99.90;;;;;;4955727;28;20188;-82
2023/10/02 06:35:57;;;;;;;0.10;0.10;;;14.40;99.90;;;;;;4959570;28;20281;-82
2023/10/02 06:38:29;;;;;;;0.10;0.10;;;14.30;99.90;;;;;;4956772;28;20207;-81
2023/10/02 06:40:56;;;;;;;0.10;0.10;;;14.40;99.90;;;;;;4960169;28;20290;-82
2023/10/02 06:43:28;;;;;;;0.10;0.10;;;14.40;99.90;;;;;;4945984;28;20283;-82
2023/10/02 06:46:06;;;;;;;0.10;0.10;;;14.40;99.90;;;;;;4957450;28;20288;-81
2023/10/02 06:48:34;;;;;;;0.10;0.10;;;14.50;99.90;;;;;;4958390;28;20765;-81
2023/10/02 06:51:04;;;;;;;0.10;0.10;;;14.50;99.90;;;;;;4959309;28;20726;-81
2023/10/02 06:53:30;;;;;;;0.10;0.10;;;14.70;99.90;;;;;;4958838;28;20508;-82
2023/10/02 06:55:58;;;;;;;0.10;0.10;;;14.90;99.90;;;;;;4958593;28;20189;-81
2023/10/02 06:58:25;;;;;;;0.10;0.10;;;15.00;99.90;;;;;;4956951;28;20181;-82
2023/10/02 07:01:01;;;;;;;0.10;0.10;;;15.10;99.90;;;;;;4957723;28;20209;-82
2023/10/02 07:03:27;;;;;;;0.10;0.10;;;15.30;99.90;;;;;;4958110;28;20192;-82
2023/10/02 07:05:52;;;;;;;0.10;0.10;;;15.70;99.90;;;;;;4959098;28;20556;-81
2023/10/02 07:08:21;;;;;;;0.00;0.00;;;16.10;99.90;;;;;;4955429;28;20183;-82
2023/10/02 07:10:47;;;;;;;0.10;0.10;;;16.30;99.90;;;;;;4958412;28;20205;-82
2023/10/02 07:13:20;;;;;;;0.10;0.10;;;16.50;99.90;;;;;;4956904;28;20200;-82
2023/10/02 07:15:55;;;;;;;0.10;0.10;;;16.90;99.90;;;;;;4958459;28;20196;-81
2023/10/02 07:18:21;;;;;;;0.10;0.10;;;17.10;99.90;;;;;;4955017;28;20208;-82
2023/10/02 07:20:53;;;;;;;0.10;0.10;;;17.30;99.90;;;;;;4952923;28;20867;-81
2023/10/02 07:23:22;;;;;;;0.10;0.10;;;17.40;99.90;;;;;;4954742;28;20192;-81
2023/10/02 07:25:51;;;;;;;0.10;0.10;;;17.70;99.90;;;;;;4957101;28;20200;-81
2023/10/02 07:28:21;;;;;;;0.10;0.10;;;17.70;99.90;;;;;;4957605;28;20196;-81
2023/10/02 07:30:50;;;;;;;0.10;0.10;;;17.80;99.90;;;;;;4958309;28;20221;-81
2023/10/02 07:33:19;;;;;;;0.10;0.10;;;17.80;99.90;;;;;;4953759;28;20191;-82
2023/10/02 07:35:52;;;;;;;0.10;0.10;;;17.90;99.90;;;;;;4959084;28;20196;-81
2023/10/02 07:38:22;;;;;;;0.10;0.10;;;17.50;99.90;;;;;;4956621;28;20289;-81
2023/10/02 07:40:49;;;;;;;0.10;0.10;;;17.70;99.90;;;;;;4958173;28;20204;-82
2023/10/02 07:43:18;;;;;;;0.10;0.10;;;18.00;99.90;;;;;;4959140;28;20557;-82
2023/10/02 07:45:44;;;;;;;0.10;0.10;;;18.10;99.90;;;;;;4961246;28;20185;-82
2023/10/02 07:48:16;;;;;;;0.10;0.10;;;18.30;99.90;;;;;;4976893;28;20236;-81
2023/10/02 07:50:44;;;;;;;0.10;0.10;;;18.00;99.90;;;;;;4960589;28;20900;-81
2023/10/02 07:53:09;;;;;;;0.10;0.10;;;17.70;99.90;;;;;;4962464;28;20233;-82
2023/10/02 07:55:42;;;;;;;0.10;0.10;;;17.90;99.90;;;;;;4962016;28;20196;-82
2023/10/02 07:58:08;;;;;;;0.10;0.10;;;17.90;99.90;;;;;;4978029;28;21179;-82
2023/10/02 08:00:38;;;;;;;0.10;0.10;;;17.80;99.90;;;;;;4961374;28;20692;-82
2023/10/02 08:03:09;;;;;;;0.10;0.10;;;17.70;99.90;;;;;;4962567;28;20216;-82
2023/10/02 08:05:35;;;;;;;0.10;0.10;;;17.80;99.90;;;;;;4959511;28;20181;-81
2023/10/02 08:08:10;;;;;;;0.10;0.10;;;18.30;99.90;;;;;;4961649;28;20636;-81
2023/10/02 08:10:53;;;;;;;0.10;0.10;;;18.70;99.90;;;;;;4961024;28;20235;-81
2023/10/02 08:13:35;;;;;;;0.10;0.10;;;19.10;99.90;;;;;;4962901;28;20172;-81
2023/10/02 08:16:11;;;;;;;0.10;0.10;;;19.00;99.90;;;;;;4961884;28;20671;-81
2023/10/02 08:18:56;;;;;;;0.10;0.10;;;19.20;99.90;;;;;;4962123;28;20188;-82
2023/10/02 08:21:33;;;;;;;0.10;0.10;;;18.80;99.90;;;;;;4960645;28;20211;-82
2023/10/02 08:24:01;;;;;;;0.10;0.10;;;19.20;99.90;;;;;;4963883;28;20183;-81
2023/10/02 08:26:27;;;;;;;0.10;0.10;;;19.50;99.90;;;;;;4960768;28;20183;-81
2023/10/02 08:28:53;;;;;;;0.10;0.10;;;19.40;99.90;;;;;;4960686;28;20280;-81
2023/10/02 08:31:19;;;;;;;0.10;0.10;;;19.90;99.90;;;;;;4961613;28;20197;-81
2023/10/02 08:33:45;;;;;;;0.10;0.10;;;19.90;99.90;;;;;;4960357;28;20184;-81
2023/10/02 08:36:12;;;;;;;0.10;0.10;;;19.60;99.90;;;;;;4961919;28;20200;-81
2023/10/02 08:38:40;;;;;;;0.10;0.10;;;19.60;99.90;;;;;;4959519;28;20185;-81
2023/10/02 08:41:08;;;;;;;0.10;0.10;;;19.90;99.90;;;;;;4960568;28;20216;-82
2023/10/02 08:43:41;;;;;;;0.10;0.10;;;20.20;99.90;;;;;;4961996;28;20272;-81
2023/10/02 08:46:19;;;;;;;0.10;0.10;;;20.60;99.90;;;;;;4963445;28;20169;-81
2023/10/02 08:48:45;;;;;;;0.10;0.10;;;20.50;99.90;;;;;;4960081;28;20173;-80
2023/10/02 08:51:11;;;;;;;0.10;0.10;;;20.80;99.90;;;;;;4961060;28;20231;-80
2023/10/02 08:53:37;;;;;;;0.10;0.10;;;21.00;99.90;;;;;;4961992;28;20180;-80
2023/10/02 08:56:21;;;;;;;0.10;0.10;;;21.10;99.90;;;;;;4961073;28;20185;-80
2023/10/02 08:59:14;;;;;;;0.10;0.10;;;21.30;99.90;;;;;;4960453;28;20271;-80
2023/10/02 09:01:33;;;;;;;0.10;0.10;;;21.50;99.90;;;;;;4960766;28;20216;-80
2023/10/02 09:06:44;;;;;;;0.10;0.10;;;21.70;99.90;;;;;;4961324;28;20188;-79
2023/10/02 09:11:53;;;;;;;0.10;0.10;;;21.40;99.90;;;;;;4961500;28;20204;-80
2023/10/02 09:14:39;;;;;;;0.10;0.10;;;21.60;99.90;;;;;;4962472;28;20176;-80
2023/10/02 09:17:19;;;;;;;0.10;0.10;;;21.80;99.90;;;;;;4959545;28;20207;-80
2023/10/02 09:20:07;;;;;;;0.10;0.10;;;22.00;99.90;;;;;;4956949;28;20195;-79
2023/10/02 09:22:37;;;;;;;0.10;0.10;;;21.90;99.90;;;;;;4959545;28;20215;-79
2023/10/02 09:25:48;;;;;;;0.10;0.10;;;22.00;99.90;;;;;;4958876;28;20591;-80
2023/10/02 09:27:56;;;;;;;0.10;0.10;;;21.30;99.90;;;;;;4963645;28;20280;-80
2023/10/02 09:30:36;;;;;;;0.10;0.10;;;21.20;99.90;;;;;;4957884;28;20189;-80
2023/10/02 09:33:23;;;;;;;0.10;0.10;;;21.70;99.90;;;;;;4957981;28;20185;-79
2023/10/02 09:35:52;;;;;;;0.10;0.10;;;22.10;99.90;;;;;;4958557;28;20557;-80
2023/10/02 09:38:22;;;;;;;0.10;0.10;;;21.80;99.90;;;;;;4958446;28;20199;-80
2023/10/02 09:40:56;;;;;;;0.10;0.10;;;22.00;99.90;;;;;;4959065;28;20224;-80
2023/10/02 09:43:23;;;;;;;0.10;0.10;;;22.10;99.90;;;;;;4957696;28;20234;-80
2023/10/02 09:45:55;;;;;;;0.10;0.10;;;22.30;99.90;;;;;;4959673;28;20189;-81
2023/10/02 09:51:30;;;;;;;0.10;0.10;;;22.70;99.90;;;;;;4960436;28;20224;-82
2023/10/02 09:54:41;;;;;;;0.10;0.10;;;22.40;99.90;;;;;;4961694;28;20180;-82
2023/10/02 09:57:24;;;;;;;0.10;0.10;;;22.60;99.90;;;;;;4955404;28;20275;-82
2023/10/02 09:59:51;;;;;;;0.10;0.10;;;22.90;99.90;;;;;;4960306;28;20181;-81
2023/10/02 10:07:52;;;;;;;0.10;0.10;;;23.20;99.90;;;;;;4957106;28;20664;-81
2023/10/02 10:10:27;;;;;;;0.10;0.10;;;23.20;99.90;;;;;;4957881;28;20232;-82
2023/10/02 10:12:56;;;;;;;0.10;0.10;;;23.10;99.90;;;;;;4960690;28;20187;-81
2023/10/02 10:15:26;;;;;;;0.10;0.10;;;22.20;99.90;;;;;;4959555;28;20185;-82
2023/10/02 10:17:52;;;;;;;0.10;0.10;;;22.30;99.90;;;;;;4960774;28;20216;-80
2023/10/02 10:20:22;;;;;;;0.10;0.10;;;22.70;99.90;;;;;;4960313;28;20278;-81
2023/10/02 10:22:51;;;;;;;0.10;0.10;;;23.20;99.90;;;;;;4959647;28;20209;-81
2023/10/02 10:27:54;;;;;;;0.10;0.10;;;23.30;99.90;;;;;;4961263;28;20193;-82
2023/10/02 10:30:28;;;;;;;0.10;0.10;;;23.40;99.90;;;;;;4958869;28;20196;-82
2023/10/02 10:35:40;;;;;;;0.10;0.10;;;23.80;99.90;;;;;;4960848;28;20205;-82
2023/10/02 10:38:42;;;;;;;0.10;0.10;;;24.00;99.90;;;;;;4959945;28;20201;-81
2023/10/02 10:41:35;;;;;;;0.10;0.10;;;24.10;99.90;;;;;;4962336;28;20209;-81
2023/10/02 10:44:11;;;;;;;0.10;0.10;;;24.20;99.90;;;;;;4960870;28;20192;-82
2023/10/02 10:46:38;;;;;;;0.10;0.10;;;24.30;99.90;;;;;;4960276;28;20204;-82
2023/10/02 10:49:09;;;;;;;0.10;0.10;;;23.80;99.90;;;;;;4961056;28;20185;-82
2023/10/02 10:51:37;;;;;;;0.10;0.10;;;24.00;99.90;;;;;;4975759;28;20215;-82
2023/10/02 10:54:25;;;;;;;0.10;0.10;;;23.90;99.90;;;;;;4961881;28;20199;-82
2023/10/02 10:57:22;;;;;;;0.10;0.10;;;23.10;99.90;;;;;;4961375;28;20195;-81
2023/10/02 11:00:26;;;;;;;0.10;0.10;;;22.90;99.90;;;;;;4959521;28;20251;-82
2023/10/02 11:03:08;;;;;;;0.10;0.10;;;23.20;99.90;;;;;;4971879;28;20215;-81
2023/10/02 11:05:36;;;;;;;0.10;0.10;;;23.30;99.90;;;;;;4973821;28;20188;-82
2023/10/02 11:08:23;;;;;;;0.10;0.10;;;23.80;99.90;;;;;;4957610;28;20540;-82
2023/10/02 11:11:18;;;;;;;0.10;0.10;;;24.00;99.90;;;;;;4957327;28;20199;-82
2023/10/02 11:13:58;;;;;;;0.10;0.10;;;24.10;99.90;;;;;;4959515;28;20187;-82
2023/10/02 11:16:31;;;;;;;0.10;0.10;;;24.30;99.90;;;;;;4974183;28;20202;-82
2023/10/02 11:19:21;;;;;;;0.10;0.10;;;24.10;99.90;;;;;;4957843;28;20195;-82
2023/10/02 11:22:01;;;;;;;0.10;0.10;;;23.30;99.90;;;;;;4959905;28;20245;-82
2023/10/02 11:24:27;;;;;;;0.10;0.10;;;23.20;99.90;;;;;;4962020;28;20212;-82
2023/10/02 11:27:04;;;;;;;0.10;0.10;;;23.60;99.90;;;;;;4962868;28;20213;-82
2023/10/02 11:29:40;;;;;;;0.10;0.10;;;23.90;99.90;;;;;;4960161;28;20203;-82
2023/10/02 11:32:22;;;;;;;0.10;0.10;;;24.20;99.90;;;;;;4961136;28;20223;-82
2023/10/02 11:34:59;;;;;;;0.10;0.10;;;24.60;99.90;;;;;;4963959;28;20242;-82
2023/10/02 11:37:26;;;;;;;0.10;0.10;;;25.00;99.90;;;;;;4962513;28;20180;-83
2023/10/02 11:39:54;;;;;;;0.10;0.10;;;25.20;99.90;;;;;;4958933;28;20196;-82
2023/10/02 11:42:20;;;;;;;0.10;0.10;;;25.30;99.90;;;;;;4963122;28;20247;-82
2023/10/02 11:44:46;;;;;;;0.10;0.10;;;25.50;99.90;;;;;;4962638;28;20879;-82
2023/10/02 11:47:12;;;;;;;0.10;0.10;;;25.60;99.90;;;;;;4962598;28;20765;-82
2023/10/02 11:49:39;;;;;;;0.10;0.10;;;25.50;99.90;;;;;;4960986;28;20181;-82
2023/10/02 11:52:06;;;;;;;0.10;0.10;;;25.70;99.90;;;;;;4960097;28;20197;-82
2023/10/02 11:54:41;;;;;;;0.10;0.10;;;25.70;99.90;;;;;;4964653;28;20631;-82
2023/10/02 11:57:10;;;;;;;0.10;0.10;;;25.40;99.90;;;;;;4958699;28;20196;-82
2023/10/02 11:59:45;;;;;;;0.10;0.10;;;25.80;99.90;;;;;;4959745;28;20196;-82
2023/10/02 12:02:11;;;;;;;0.10;0.10;;;25.90;99.90;;;;;;4978958;28;20220;-81
2023/10/02 12:04:38;;;;;;;0.10;0.10;;;26.10;99.90;;;;;;4959068;28;22500;-82
2023/10/02 12:07:05;;;;;;;0.20;0.20;;;26.20;99.90;;;;;;4962213;28;20185;-82
2023/10/02 12:09:33;;;;;;;0.10;0.10;;;26.00;99.90;;;;;;4960856;28;20670;-82
2023/10/02 12:11:59;;;;;;;0.10;0.10;;;26.00;99.90;;;;;;4962980;28;20243;-82
2023/10/02 12:14:29;;;;;;;0.10;0.10;;;26.10;99.90;;;;;;4962325;28;20201;-82
2023/10/02 12:16:57;;;;;;;0.10;0.10;;;26.10;99.90;;;;;;4962604;28;20196;-82
2023/10/02 12:19:24;;;;;;;0.10;0.10;;;26.00;99.90;;;;;;4961499;28;20688;-82
2023/10/02 12:21:51;;;;;;;0.10;0.10;;;25.50;99.90;;;;;;4958788;28;20223;-82
2023/10/02 12:24:17;;;;;;;0.10;0.10;;;25.40;99.90;;;;;;4962994;28;20184;-82
2023/10/02 12:26:43;;;;;;;0.10;0.10;;;25.40;99.90;;;;;;4960972;28;20189;-82
2023/10/02 12:29:10;;;;;;;0.10;0.10;;;25.30;99.90;;;;;;4961865;28;20272;-81
2023/10/02 12:31:36;;;;;;;0.10;0.10;;;25.30;99.90;;;;;;4960193;28;20213;-82
2023/10/02 12:34:03;;;;;;;2.13;2.13;;;25.40;99.90;;;;;;4964063;28;20234;-81
2023/10/02 12:36:28;;;;;;;0.10;0.10;;;25.30;99.90;;;;;;4963054;28;20190;-82
2023/10/02 12:38:54;;;;;;;0.10;0.10;;;25.50;99.90;;;;;;4960429;28;20193;-82
2023/10/02 12:41:25;;;;;;;0.10;0.10;;;25.50;99.90;;;;;;4963618;28;20254;-82
2023/10/02 12:43:58;;;;;;;0.10;0.10;;;25.30;99.90;;;;;;4959990;28;20746;-82
2023/10/02 12:46:29;;;;;;;0.10;0.10;;;25.30;99.90;;;;;;4962367;28;20189;-81
2023/10/02 12:48:57;;;;;;;0.10;0.10;;;25.50;99.90;;;;;;4960408;28;20235;-82
2023/10/02 12:51:23;;;;;;;0.10;0.10;;;25.20;99.90;;;;;;4962674;28;20514;-82
2023/10/02 12:53:50;;;;;;;1.73;1.73;;;25.30;99.90;;;;;;4962763;28;20196;-82
2023/10/02 12:56:24;;;;;;;0.10;0.10;;;25.10;99.90;;;;;;4960426;28;20189;-82
2023/10/02 12:58:51;;;;;;;0.10;0.10;;;25.30;99.90;;;;;;4962176;28;20543;-82
2023/10/02 13:01:17;;;;;;;0.10;0.10;;;25.50;99.90;;;;;;4959462;28;20295;-82
2023/10/02 13:03:43;;;;;;;0.10;0.10;;;25.80;99.90;;;;;;4959765;28;20204;-82
2023/10/02 13:06:12;;;;;;;0.10;0.10;;;25.30;99.90;;;;;;4960171;28;20568;-82
2023/10/02 13:08:40;;;;;;;0.10;0.10;;;25.10;99.90;;;;;;4963214;28;20675;-82
2023/10/02 13:11:12;;;;;;;0.10;0.10;;;25.00;99.90;;;;;;4961007;28;20205;-82
2023/10/02 13:13:39;;;;;;;0.10;0.10;;;25.10;99.90;;;;;;4962709;28;20661;-82
2023/10/02 13:16:05;;;;;;;0.00;0.00;;;25.50;99.90;;;;;;4960714;28;20215;-82
2023/10/02 13:18:30;;;;;;;0.10;0.10;;;25.70;99.90;;;;;;4963200;28;20189;-81
2023/10/02 13:20:58;;;;;;;0.10;0.10;;;25.90;99.90;;;;;;4962022;28;20603;-82
2023/10/02 13:23:25;;;;;;;0.10;0.10;;;25.90;99.90;;;;;;4962763;28;20264;-82
2023/10/02 13:25:51;;;;;;;0.10;0.10;;;25.90;99.90;;;;;;4964092;28;20193;-82
2023/10/02 13:28:17;;;;;;;0.10;0.10;;;26.10;99.90;;;;;;4958770;28;20189;-82
2023/10/02 13:30:42;;;;;;;0.10;0.10;;;26.20;99.90;;;;;;4962186;28;20215;-80
2023/10/02 13:33:08;;;;;;;0.10;0.10;;;26.20;99.90;;;;;;4951437;28;20689;-81
2023/10/02 13:35:44;;;;;;;0.10;0.10;;;25.70;99.90;;;;;;4960967;28;20276;-82
2023/10/02 13:38:10;;;;;;;0.10;0.10;;;25.50;99.90;;;;;;4956505;28;20193;-82
2023/10/02 13:40:37;;;;;;;0.53;0.53;;;25.80;99.90;;;;;;4963093;28;20203;-81
2023/10/02 13:43:05;;;;;;;0.10;0.10;;;25.90;99.90;;;;;;4960809;28;20201;-81
2023/10/02 13:45:35;;;;;;;0.10;0.10;;;25.90;99.90;;;;;;4958812;28;20281;-81
2023/10/02 13:48:04;;;;;;;0.10;0.10;;;25.90;99.90;;;;;;4958445;28;20220;-82
2023/10/02 13:50:33;;;;;;;0.20;0.20;;;25.40;99.90;;;;;;4975911;28;20295;-81
2023/10/02 13:53:01;;;;;;;0.10;0.10;;;25.40;99.90;;;;;;4973874;28;20197;-82
2023/10/02 13:55:27;;;;;;;0.10;0.10;;;25.90;99.90;;;;;;4958331;28;20195;-81
2023/10/02 13:57:54;;;;;;;0.10;0.10;;;26.10;99.90;;;;;;4957047;28;20268;-82
2023/10/02 14:00:21;;;;;;;0.10;0.10;;;26.20;99.90;;;;;;4958880;28;20196;-82